Time;durP1;ratioP1;P1;durP2;ratioP2;P2;SDS_P1;SDS_P2;PMS_P1;PMS_P2;Temp;Humidity;BMP_temperature;BMP_pressure;BME280_temperature;BME280_humidity;BME280_pressure;Samples;Min_cycle;Max_cycle;Signal;HPM_P1;HPM_P2
2024/02/28 00:00:44;;;;;;;55.38;23.75;;;;;;;;;;4992435;28;20038;-78
2024/02/28 00:03:09;;;;;;;61.03;25.30;;;;;;;;;;4992324;28;20034;-78
2024/02/28 00:05:34;;;;;;;57.88;22.77;;;;;;;;;;4992422;28;20041;-78
2024/02/28 00:07:59;;;;;;;52.80;23.23;;;;;;;;;;4992729;28;20052;-78
2024/02/28 00:10:24;;;;;;;64.35;26.02;;;;;;;;;;4992204;28;20026;-80
2024/02/28 00:12:50;;;;;;;52.92;23.83;;;;;;;;;;4991527;28;20386;-78
2024/02/28 00:15:15;;;;;;;47.70;21.20;;;;;;;;;;4992369;28;20030;-78
2024/02/28 00:17:41;;;;;;;46.85;22.00;;;;;;;;;;4991155;28;20031;-78
2024/02/28 00:20:07;;;;;;;56.25;24.17;;;;;;;;;;4997061;28;20038;-78
2024/02/28 00:22:32;;;;;;;40.65;20.65;;;;;;;;;;4991607;28;20171;-77
2024/02/28 00:24:57;;;;;;;52.65;22.60;;;;;;;;;;4991705;28;20499;-77
2024/02/28 00:27:22;;;;;;;39.80;20.75;;;;;;;;;;4992181;28;20085;-78
2024/02/28 00:29:47;;;;;;;51.47;22.95;;;;;;;;;;4991882;28;20042;-78
2024/02/28 00:32:12;;;;;;;55.15;22.40;;;;;;;;;;4984926;28;20050;-77
2024/02/28 00:34:38;;;;;;;44.90;20.88;;;;;;;;;;4991710;28;20042;-78
2024/02/28 00:37:03;;;;;;;43.55;22.73;;;;;;;;;;4992146;28;20030;-78
2024/02/28 00:39:28;;;;;;;42.22;20.83;;;;;;;;;;4991724;28;20517;-78
2024/02/28 00:41:53;;;;;;;45.03;23.05;;;;;;;;;;4991585;28;20487;-78
2024/02/28 00:44:18;;;;;;;47.47;22.40;;;;;;;;;;4991831;28;20022;-78
2024/02/28 00:46:43;;;;;;;46.20;20.73;;;;;;;;;;4991733;28;20041;-78
2024/02/28 00:49:09;;;;;;;44.08;20.10;;;;;;;;;;4989772;28;20384;-80
2024/02/28 00:51:36;;;;;;;49.00;20.63;;;;;;;;;;4991077;28;20030;-79
2024/02/28 00:54:01;;;;;;;58.00;24.67;;;;;;;;;;4990528;28;20505;-78
2024/02/28 00:56:27;;;;;;;43.20;20.90;;;;;;;;;;4991529;28;20066;-78
2024/02/28 00:58:52;;;;;;;38.22;18.90;;;;;;;;;;4992039;28;20041;-78
2024/02/28 01:01:17;;;;;;;58.00;21.52;;;;;;;;;;4993759;28;20030;-77
2024/02/28 01:03:43;;;;;;;40.42;18.88;;;;;;;;;;4990996;28;20050;-77
2024/02/28 01:06:09;;;;;;;43.35;20.13;;;;;;;;;;4991581;28;20049;-77
2024/02/28 01:08:34;;;;;;;44.80;19.98;;;;;;;;;;4991628;28;20066;-78
2024/02/28 01:10:59;;;;;;;59.83;23.60;;;;;;;;;;4995203;28;20031;-77
2024/02/28 01:13:24;;;;;;;43.83;20.40;;;;;;;;;;4991465;28;20037;-79
2024/02/28 01:15:49;;;;;;;58.67;22.70;;;;;;;;;;4991054;28;20022;-78
2024/02/28 01:18:14;;;;;;;46.88;21.40;;;;;;;;;;4991184;28;20034;-78
2024/02/28 01:20:40;;;;;;;54.58;22.17;;;;;;;;;;4990936;28;20410;-78
2024/02/28 01:23:05;;;;;;;43.50;21.20;;;;;;;;;;4990877;28;20043;-78
2024/02/28 01:25:30;;;;;;;46.30;20.63;;;;;;;;;;4990915;28;20038;-78
2024/02/28 01:27:56;;;;;;;46.25;21.02;;;;;;;;;;4991170;28;20046;-78
2024/02/28 01:30:21;;;;;;;65.47;22.83;;;;;;;;;;4995210;28;20038;-77
2024/02/28 01:32:46;;;;;;;43.72;19.80;;;;;;;;;;4990428;28;20038;-78
2024/02/28 01:35:12;;;;;;;44.63;19.63;;;;;;;;;;4990922;28;20038;-78
2024/02/28 01:37:37;;;;;;;46.33;21.40;;;;;;;;;;4991068;28;20487;-79
2024/02/28 01:40:04;;;;;;;53.30;20.60;;;;;;;;;;4991085;28;20038;-78
2024/02/28 01:42:30;;;;;;;43.58;20.55;;;;;;;;;;4990487;28;20037;-79
2024/02/28 01:44:55;;;;;;;40.70;17.85;;;;;;;;;;4991040;28;20077;-78
2024/02/28 01:47:20;;;;;;;43.33;20.67;;;;;;;;;;4991084;28;20701;-78
2024/02/28 01:49:46;;;;;;;51.60;20.13;;;;;;;;;;4990719;28;20045;-78
2024/02/28 01:52:13;;;;;;;46.90;21.10;;;;;;;;;;4989160;28;20038;-78
2024/02/28 01:54:38;;;;;;;33.60;17.23;;;;;;;;;;4989410;28;20028;-78
2024/02/28 01:57:03;;;;;;;30.50;16.17;;;;;;;;;;4990925;28;20109;-78
2024/02/28 01:59:29;;;;;;;39.58;17.40;;;;;;;;;;4990609;28;20050;-78
2024/02/28 02:01:55;;;;;;;39.53;18.13;;;;;;;;;;4990592;28;20030;-78
2024/02/28 02:04:20;;;;;;;38.00;18.38;;;;;;;;;;4990226;28;20027;-78
2024/02/28 02:06:47;;;;;;;51.78;20.52;;;;;;;;;;4989419;28;20042;-78
2024/02/28 02:09:12;;;;;;;39.47;17.90;;;;;;;;;;4990924;28;20118;-78
2024/02/28 02:11:38;;;;;;;39.38;17.73;;;;;;;;;;4989447;28;20444;-78
2024/02/28 02:14:03;;;;;;;34.10;15.93;;;;;;;;;;4994713;28;20053;-78
2024/02/28 02:16:29;;;;;;;32.28;15.88;;;;;;;;;;4994627;28;20045;-79
2024/02/28 02:18:55;;;;;;;43.67;19.30;;;;;;;;;;4990897;28;20043;-77
2024/02/28 02:21:23;;;;;;;38.00;19.58;;;;;;;;;;4992857;28;20034;-78
2024/02/28 02:23:48;;;;;;;31.88;15.95;;;;;;;;;;4994541;28;20406;-79
2024/02/28 02:26:13;;;;;;;33.10;16.75;;;;;;;;;;4994673;28;20038;-79
2024/02/28 02:28:38;;;;;;;39.75;17.58;;;;;;;;;;4994382;28;20062;-78
2024/02/28 02:31:04;;;;;;;43.70;16.10;;;;;;;;;;4993805;28;20550;-78
2024/02/28 02:33:29;;;;;;;32.42;16.27;;;;;;;;;;4994222;28;20041;-78
2024/02/28 02:35:54;;;;;;;32.85;15.95;;;;;;;;;;4992440;28;20073;-78
2024/02/28 02:38:19;;;;;;;34.72;16.48;;;;;;;;;;4994440;28;20037;-77
2024/02/28 02:40:48;;;;;;;36.97;17.20;;;;;;;;;;4993682;28;20062;-80
2024/02/28 02:43:14;;;;;;;43.67;18.77;;;;;;;;;;4993022;28;20490;-78
2024/02/28 02:45:39;;;;;;;30.00;15.95;;;;;;;;;;4993742;28;20137;-77
2024/02/28 02:48:04;;;;;;;31.48;16.00;;;;;;;;;;4994071;28;20070;-78
2024/02/28 02:50:29;;;;;;;33.88;16.10;;;;;;;;;;4991604;28;20038;-78
2024/02/28 02:52:55;;;;;;;35.35;17.40;;;;;;;;;;4993570;28;20052;-78
2024/02/28 02:55:20;;;;;;;30.85;13.77;;;;;;;;;;4994813;28;20026;-78
2024/02/28 02:57:46;;;;;;;29.67;14.50;;;;;;;;;;4992650;28;20058;-78
2024/02/28 03:00:11;;;;;;;27.38;14.02;;;;;;;;;;4993822;28;20065;-78
2024/02/28 03:02:40;;;;;;;29.33;13.70;;;;;;;;;;4993205;28;20483;-78
2024/02/28 03:05:05;;;;;;;26.90;13.23;;;;;;;;;;4993722;28;20116;-78
2024/02/28 03:07:30;;;;;;;30.08;14.93;;;;;;;;;;4992478;28;20038;-78
2024/02/28 03:09:55;;;;;;;25.77;14.05;;;;;;;;;;4993526;28;20057;-77
2024/02/28 03:12:21;;;;;;;28.50;14.45;;;;;;;;;;4993274;28;20062;-78
2024/02/28 03:14:46;;;;;;;27.83;13.38;;;;;;;;;;4994198;28;20034;-78
2024/02/28 03:17:12;;;;;;;27.58;13.82;;;;;;;;;;4998059;28;20061;-78
2024/02/28 03:19:37;;;;;;;30.23;16.13;;;;;;;;;;4992533;28;20129;-78
2024/02/28 03:22:03;;;;;;;26.50;13.95;;;;;;;;;;4993571;28;20122;-78
2024/02/28 03:24:28;;;;;;;32.65;15.50;;;;;;;;;;4993460;28;20457;-78
2024/02/28 03:26:53;;;;;;;29.38;15.05;;;;;;;;;;4993991;28;20035;-79
2024/02/28 03:29:18;;;;;;;38.72;17.67;;;;;;;;;;4993783;28;20418;-79
2024/02/28 03:31:43;;;;;;;35.15;16.92;;;;;;;;;;4997320;28;20125;-78
2024/02/28 03:34:09;;;;;;;41.15;17.02;;;;;;;;;;4993529;28;20046;-78
2024/02/28 03:36:35;;;;;;;29.33;14.23;;;;;;;;;;4992266;28;20027;-78
2024/02/28 03:39:00;;;;;;;30.52;16.70;;;;;;;;;;4993225;28;20491;-78
2024/02/28 03:41:25;;;;;;;31.75;15.27;;;;;;;;;;4991613;28;20488;-78
2024/02/28 03:43:50;;;;;;;33.45;16.48;;;;;;;;;;4992120;28;20038;-78
2024/02/28 03:46:18;;;;;;;29.73;14.88;;;;;;;;;;4992934;28;20038;-78
2024/02/28 03:48:43;;;;;;;31.02;13.80;;;;;;;;;;4991549;28;20034;-77
2024/02/28 03:51:09;;;;;;;29.98;14.15;;;;;;;;;;4993128;28;20410;-78
2024/02/28 03:53:34;;;;;;;35.60;16.27;;;;;;;;;;4992959;28;20031;-78
2024/02/28 03:55:59;;;;;;;36.65;17.75;;;;;;;;;;4991552;28;20463;-78
2024/02/28 03:58:24;;;;;;;38.40;17.23;;;;;;;;;;4992722;28;20030;-78
2024/02/28 04:00:49;;;;;;;38.05;17.10;;;;;;;;;;4991622;28;20633;-78
2024/02/28 04:03:15;;;;;;;37.92;16.45;;;;;;;;;;4992867;28;20065;-79
2024/02/28 04:05:40;;;;;;;35.20;16.70;;;;;;;;;;4991019;28;20038;-78
2024/02/28 04:08:05;;;;;;;34.45;17.35;;;;;;;;;;4992843;28;20045;-79
2024/02/28 04:10:31;;;;;;;36.47;15.93;;;;;;;;;;4992948;28;20034;-80
2024/02/28 04:12:56;;;;;;;38.45;17.55;;;;;;;;;;5004736;28;20069;-78
2024/02/28 04:15:21;;;;;;;32.95;15.38;;;;;;;;;;4992304;28;20034;-79
2024/02/28 04:17:47;;;;;;;32.50;15.80;;;;;;;;;;4992361;28;20031;-80
2024/02/28 04:20:12;;;;;;;37.20;16.95;;;;;;;;;;4992283;28;20384;-79
2024/02/28 04:22:38;;;;;;;33.53;16.25;;;;;;;;;;4991907;28;20494;-78
2024/02/28 04:25:04;;;;;;;35.45;15.98;;;;;;;;;;4992226;28;20414;-79
2024/02/28 04:27:29;;;;;;;47.83;19.55;;;;;;;;;;4992402;28;20042;-80
2024/02/28 04:29:54;;;;;;;38.67;17.33;;;;;;;;;;4990705;28;20049;-80
2024/02/28 04:32:19;;;;;;;37.45;17.33;;;;;;;;;;4991431;28;20523;-79
2024/02/28 04:34:44;;;;;;;45.30;21.02;;;;;;;;;;4990128;28;20049;-79
2024/02/28 04:37:10;;;;;;;35.88;15.65;;;;;;;;;;4992139;28;20146;-78
2024/02/28 04:39:35;;;;;;;35.47;17.08;;;;;;;;;;4989603;28;20033;-78
2024/02/28 04:42:00;;;;;;;35.10;17.60;;;;;;;;;;4988221;28;20026;-79
2024/02/28 04:44:25;;;;;;;37.85;16.08;;;;;;;;;;4991710;28;20026;-79
2024/02/28 04:46:50;;;;;;;34.88;16.52;;;;;;;;;;4986835;28;20047;-78
2024/02/28 04:49:15;;;;;;;30.58;15.23;;;;;;;;;;4991749;28;20035;-78
2024/02/28 04:51:41;;;;;;;37.63;17.17;;;;;;;;;;4991451;28;20097;-78
2024/02/28 04:54:06;;;;;;;32.70;15.05;;;;;;;;;;4991610;28;20046;-80
2024/02/28 04:56:31;;;;;;;35.75;15.55;;;;;;;;;;4990575;28;20030;-80
2024/02/28 04:58:56;;;;;;;46.17;17.35;;;;;;;;;;4991872;28;20042;-79
2024/02/28 05:01:22;;;;;;;34.63;14.65;;;;;;;;;;4992577;28;20026;-79
2024/02/28 05:03:47;;;;;;;43.03;16.40;;;;;;;;;;4990898;28;20072;-79
2024/02/28 05:06:13;;;;;;;38.45;16.55;;;;;;;;;;4991725;28;20058;-79
2024/02/28 05:08:38;;;;;;;56.17;18.08;;;;;;;;;;4991446;28;20108;-79
2024/02/28 05:11:03;;;;;;;33.78;14.30;;;;;;;;;;5002172;28;20026;-80
2024/02/28 05:13:28;;;;;;;44.83;17.33;;;;;;;;;;4991726;28;20049;-80
2024/02/28 05:15:53;;;;;;;49.13;17.13;;;;;;;;;;4991377;28;20101;-79
2024/02/28 05:18:18;;;;;;;42.13;17.30;;;;;;;;;;4991656;28;20034;-78
2024/02/28 05:20:44;;;;;;;38.33;16.88;;;;;;;;;;4994839;28;20444;-79
2024/02/28 05:23:09;;;;;;;39.60;16.10;;;;;;;;;;4990770;28;20026;-78
2024/02/28 05:25:34;;;;;;;34.83;14.40;;;;;;;;;;4988371;28;20160;-78
2024/02/28 05:27:59;;;;;;;40.58;17.75;;;;;;;;;;4992392;28;20088;-79
2024/02/28 05:30:24;;;;;;;36.25;15.15;;;;;;;;;;4988953;28;20029;-77
2024/02/28 05:32:50;;;;;;;35.47;14.95;;;;;;;;;;4990477;28;20605;-78
2024/02/28 05:35:15;;;;;;;41.28;15.93;;;;;;;;;;4991675;28;20484;-77
2024/02/28 05:37:40;;;;;;;36.90;15.52;;;;;;;;;;4989487;28;20085;-77
2024/02/28 05:40:06;;;;;;;28.30;13.80;;;;;;;;;;4990725;28;20065;-77
2024/02/28 05:42:31;;;;;;;30.38;13.65;;;;;;;;;;4988982;28;20109;-78
2024/02/28 05:44:57;;;;;;;38.58;15.25;;;;;;;;;;4990657;28;20818;-78
2024/02/28 05:47:22;;;;;;;34.55;14.80;;;;;;;;;;4989679;28;20030;-78
2024/02/28 05:49:48;;;;;;;40.50;15.55;;;;;;;;;;4989346;28;20038;-77
2024/02/28 05:52:13;;;;;;;37.85;15.88;;;;;;;;;;4990574;28;20407;-79
2024/02/28 05:54:38;;;;;;;31.80;14.57;;;;;;;;;;4988915;28;20038;-79
2024/02/28 05:57:03;;;;;;;38.70;15.70;;;;;;;;;;4990197;28;20026;-78
2024/02/28 05:59:28;;;;;;;28.80;13.32;;;;;;;;;;4990144;28;20046;-77
2024/02/28 06:01:54;;;;;;;43.05;14.63;;;;;;;;;;4990254;28;20031;-77
2024/02/28 06:04:19;;;;;;;39.60;15.02;;;;;;;;;;4988726;28;20030;-77
2024/02/28 06:06:44;;;;;;;29.50;14.50;;;;;;;;;;4990719;28;20558;-78
2024/02/28 06:09:10;;;;;;;32.47;14.82;;;;;;;;;;4989832;28;20078;-78
2024/02/28 06:11:35;;;;;;;26.98;12.68;;;;;;;;;;4990017;28;20113;-77
2024/02/28 06:14:02;;;;;;;30.85;16.08;;;;;;;;;;4990570;28;20102;-78
2024/02/28 06:16:27;;;;;;;28.02;13.88;;;;;;;;;;4985868;28;20049;-78
2024/02/28 06:18:52;;;;;;;28.13;14.63;;;;;;;;;;4988524;28;20030;-78
2024/02/28 06:21:17;;;;;;;27.30;12.85;;;;;;;;;;4992534;28;20033;-78
2024/02/28 06:23:43;;;;;;;27.05;13.15;;;;;;;;;;4988655;28;20030;-79
2024/02/28 06:26:14;;;;;;;38.17;15.60;;;;;;;;;;4988983;28;20038;-78
2024/02/28 06:28:42;;;;;;;33.38;14.80;;;;;;;;;;4988770;28;20030;-78
2024/02/28 06:31:11;;;;;;;27.83;14.20;;;;;;;;;;4988190;28;20038;-77
2024/02/28 06:33:36;;;;;;;26.52;13.75;;;;;;;;;;4989016;28;20050;-78
2024/02/28 06:36:01;;;;;;;35.90;15.43;;;;;;;;;;4987551;28;20757;-78
2024/02/28 06:38:27;;;;;;;29.88;12.52;;;;;;;;;;4990590;28;20105;-79
2024/02/28 06:40:52;;;;;;;26.88;12.63;;;;;;;;;;4988519;28;20038;-77
2024/02/28 06:43:17;;;;;;;28.50;13.95;;;;;;;;;;4987132;28;20492;-78
2024/02/28 06:45:42;;;;;;;31.15;15.15;;;;;;;;;;4990104;28;20029;-77
2024/02/28 06:48:07;;;;;;;23.88;11.23;;;;;;;;;;4990483;28;20034;-79
2024/02/28 06:50:33;;;;;;;29.65;14.00;;;;;;;;;;4989984;28;20030;-81
2024/02/28 06:52:58;;;;;;;24.38;13.07;;;;;;;;;;4986636;28;20027;-77
2024/02/28 06:55:23;;;;;;;24.52;11.90;;;;;;;;;;4990152;28;20174;-79
2024/02/28 06:57:48;;;;;;;27.52;12.35;;;;;;;;;;4989168;28;20466;-78
2024/02/28 07:00:18;;;;;;;20.42;10.85;;;;;;;;;;4997093;28;20065;-78
2024/02/28 07:02:43;;;;;;;24.23;12.00;;;;;;;;;;4999231;28;20503;-78
2024/02/28 07:05:09;;;;;;;22.25;12.13;;;;;;;;;;4993805;28;20065;-77
2024/02/28 07:07:34;;;;;;;22.70;11.65;;;;;;;;;;4993517;28;20038;-78
2024/02/28 07:09:59;;;;;;;26.58;12.55;;;;;;;;;;4993755;28;20026;-78
2024/02/28 07:12:24;;;;;;;23.77;11.20;;;;;;;;;;4994609;28;20031;-78
2024/02/28 07:14:50;;;;;;;24.55;12.77;;;;;;;;;;4993425;28;20030;-79
2024/02/28 07:17:15;;;;;;;22.25;10.75;;;;;;;;;;4993727;28;20106;-77
2024/02/28 07:19:40;;;;;;;21.10;12.30;;;;;;;;;;4992214;28;20026;-79
2024/02/28 07:22:05;;;;;;;23.48;11.85;;;;;;;;;;4993055;28;20030;-79
2024/02/28 07:24:31;;;;;;;24.35;11.65;;;;;;;;;;4993331;28;20036;-77
2024/02/28 07:26:57;;;;;;;19.67;11.07;;;;;;;;;;4994740;28;20045;-78
2024/02/28 07:29:22;;;;;;;22.17;11.93;;;;;;;;;;4994085;28;20444;-78
2024/02/28 07:31:47;;;;;;;20.40;10.30;;;;;;;;;;4992650;28;20034;-78
2024/02/28 07:34:13;;;;;;;19.75;11.07;;;;;;;;;;4995766;28;20079;-77
2024/02/28 07:36:38;;;;;;;19.20;10.70;;;;;;;;;;4996345;28;20061;-78
2024/02/28 07:39:03;;;;;;;17.58;9.73;;;;;;;;;;4993320;28;20030;-79
2024/02/28 07:41:29;;;;;;;22.20;11.73;;;;;;;;;;4996461;28;20030;-78
2024/02/28 07:43:54;;;;;;;18.58;9.63;;;;;;;;;;4992910;28;20503;-79
2024/02/28 07:46:19;;;;;;;16.63;9.65;;;;;;;;;;4995519;28;20030;-78
2024/02/28 07:48:44;;;;;;;17.88;10.63;;;;;;;;;;4991627;28;20038;-78
2024/02/28 07:51:09;;;;;;;17.25;8.90;;;;;;;;;;4992192;28;20038;-78
2024/02/28 07:53:35;;;;;;;18.33;8.70;;;;;;;;;;4992714;28;20515;-79
2024/02/28 07:56:00;;;;;;;17.40;8.95;;;;;;;;;;4993041;28;20034;-78
2024/02/28 07:58:25;;;;;;;15.73;9.32;;;;;;;;;;4992825;28;20026;-78
2024/02/28 08:00:52;;;;;;;17.38;9.02;;;;;;;;;;4992000;28;20070;-78
2024/02/28 08:03:17;;;;;;;17.25;8.45;;;;;;;;;;4991695;28;20022;-79
2024/02/28 08:05:44;;;;;;;14.27;7.82;;;;;;;;;;4992196;28;20081;-78
2024/02/28 08:08:09;;;;;;;14.57;8.60;;;;;;;;;;4996378;28;20034;-78
2024/02/28 08:10:35;;;;;;;14.40;7.72;;;;;;;;;;4991046;28;20117;-79
2024/02/28 08:13:03;;;;;;;14.32;7.70;;;;;;;;;;4992885;28;20454;-80
2024/02/28 08:15:28;;;;;;;15.07;7.90;;;;;;;;;;4993964;28;20101;-79
2024/02/28 08:17:54;;;;;;;16.45;8.48;;;;;;;;;;4992174;28;20117;-78
2024/02/28 08:20:19;;;;;;;13.98;7.65;;;;;;;;;;4990661;28;20105;-78
2024/02/28 08:22:44;;;;;;;15.68;8.82;;;;;;;;;;4993101;28;20117;-78
2024/02/28 08:25:11;;;;;;;14.82;8.20;;;;;;;;;;4991943;28;20034;-77
2024/02/28 08:27:36;;;;;;;15.07;8.27;;;;;;;;;;4991937;28;20030;-80
2024/02/28 08:30:03;;;;;;;13.70;7.93;;;;;;;;;;4991878;28;20487;-78
2024/02/28 08:32:28;;;;;;;15.75;8.70;;;;;;;;;;4990819;28;20080;-78
2024/02/28 08:34:54;;;;;;;17.10;8.57;;;;;;;;;;4991745;28;20101;-79
2024/02/28 08:37:19;;;;;;;16.17;8.25;;;;;;;;;;4989382;28;20026;-77
2024/02/28 08:39:44;;;;;;;16.63;8.40;;;;;;;;;;4991756;28;20035;-79
2024/02/28 08:42:09;;;;;;;11.45;6.30;;;;;;;;;;4991702;28;20058;-78
2024/02/28 08:44:35;;;;;;;14.00;7.70;;;;;;;;;;4992023;28;20514;-79
2024/02/28 08:47:00;;;;;;;14.65;8.02;;;;;;;;;;4991591;28;20072;-77
2024/02/28 08:49:26;;;;;;;16.33;8.95;;;;;;;;;;4990557;28;20022;-78
2024/02/28 08:51:51;;;;;;;13.43;7.80;;;;;;;;;;4991277;28;20491;-78
2024/02/28 08:54:16;;;;;;;16.73;9.05;;;;;;;;;;4991740;28;20037;-78
2024/02/28 08:56:41;;;;;;;15.63;9.18;;;;;;;;;;4990455;28;20034;-77
2024/02/28 08:59:07;;;;;;;15.98;9.00;;;;;;;;;;4991666;28;20034;-78
2024/02/28 09:01:34;;;;;;;17.70;10.07;;;;;;;;;;4994482;28;20461;-78
2024/02/28 09:03:59;;;;;;;16.40;9.07;;;;;;;;;;4991058;28;20046;-78
2024/02/28 09:06:24;;;;;;;17.80;9.95;;;;;;;;;;4991628;28;20038;-77
2024/02/28 09:08:49;;;;;;;21.85;11.00;;;;;;;;;;4989918;28;20030;-78
2024/02/28 09:11:14;;;;;;;16.95;10.80;;;;;;;;;;4990613;28;20433;-78
2024/02/28 09:13:40;;;;;;;17.88;10.40;;;;;;;;;;4992382;28;20026;-79
2024/02/28 09:16:05;;;;;;;19.98;10.90;;;;;;;;;;4991431;28;20034;-79
2024/02/28 09:18:30;;;;;;;17.17;10.25;;;;;;;;;;4989889;28;20069;-78
2024/02/28 09:20:55;;;;;;;17.85;9.85;;;;;;;;;;4989092;28;20062;-79
2024/02/28 09:23:21;;;;;;;17.55;10.63;;;;;;;;;;4991515;28;20106;-77
2024/02/28 09:25:46;;;;;;;18.15;11.55;;;;;;;;;;4994925;28;20439;-79
2024/02/28 09:28:13;;;;;;;20.15;11.30;;;;;;;;;;4990940;28;20038;-79
2024/02/28 09:30:39;;;;;;;22.52;12.07;;;;;;;;;;4989514;28;20038;-78
2024/02/28 09:33:04;;;;;;;20.23;11.50;;;;;;;;;;4973365;28;20478;-78
2024/02/28 09:35:29;;;;;;;25.33;13.55;;;;;;;;;;4990830;28;20026;-79
2024/02/28 09:37:54;;;;;;;21.05;12.48;;;;;;;;;;4999098;28;20484;-79
2024/02/28 09:40:20;;;;;;;23.00;13.15;;;;;;;;;;4991208;28;20038;-79
2024/02/28 09:42:52;;;;;;;25.10;13.32;;;;;;;;;;4990163;28;20515;-79
2024/02/28 09:45:17;;;;;;;23.55;13.15;;;;;;;;;;4995591;28;20058;-79
2024/02/28 09:47:42;;;;;;;20.13;12.52;;;;;;;;;;4990164;28;20112;-79
2024/02/28 09:50:09;;;;;;;22.73;13.48;;;;;;;;;;4990940;28;20041;-78
2024/02/28 09:52:35;;;;;;;23.10;12.55;;;;;;;;;;4989924;28;20045;-78
2024/02/28 09:55:00;;;;;;;25.10;13.32;;;;;;;;;;4989247;28;20038;-78
2024/02/28 09:57:28;;;;;;;21.48;12.55;;;;;;;;;;4990866;28;20082;-79
2024/02/28 09:59:54;;;;;;;21.88;12.63;;;;;;;;;;4989133;28;20101;-78
2024/02/28 10:02:20;;;;;;;19.63;11.10;;;;;;;;;;4990383;28;20144;-77
2024/02/28 10:04:47;;;;;;;20.55;11.43;;;;;;;;;;4989026;28;20760;-78
2024/02/28 10:07:13;;;;;;;21.42;11.88;;;;;;;;;;4992539;28;20450;-79
2024/02/28 10:09:38;;;;;;;22.02;12.88;;;;;;;;;;4987402;28;20228;-79
2024/02/28 10:12:04;;;;;;;21.98;12.40;;;;;;;;;;4989106;28;20061;-79
2024/02/28 10:14:29;;;;;;;22.88;13.02;;;;;;;;;;4988876;28;20030;-78
2024/02/28 10:16:55;;;;;;;22.80;12.65;;;;;;;;;;4989058;28;20027;-79
2024/02/28 10:19:20;;;;;;;22.45;13.75;;;;;;;;;;4990420;28;20105;-79
2024/02/28 10:21:46;;;;;;;26.88;14.43;;;;;;;;;;4990077;28;20105;-78
2024/02/28 10:24:14;;;;;;;27.40;14.13;;;;;;;;;;4990459;28;20642;-78
2024/02/28 10:26:45;;;;;;;25.20;14.40;;;;;;;;;;4989513;28;20042;-78
2024/02/28 10:29:11;;;;;;;27.88;14.50;;;;;;;;;;4989755;28;20033;-78
2024/02/28 10:31:37;;;;;;;26.27;14.55;;;;;;;;;;4989232;28;20483;-78
2024/02/28 10:34:03;;;;;;;23.42;14.13;;;;;;;;;;4988884;28;20110;-78
2024/02/28 10:36:31;;;;;;;26.58;14.13;;;;;;;;;;4992475;28;20395;-78
2024/02/28 10:38:56;;;;;;;24.52;14.98;;;;;;;;;;4994932;28;20101;-78
2024/02/28 10:41:22;;;;;;;24.10;14.10;;;;;;;;;;4994044;28;20034;-78
2024/02/28 10:43:48;;;;;;;28.33;14.20;;;;;;;;;;4990179;28;20038;-77
2024/02/28 10:46:14;;;;;;;21.55;12.27;;;;;;;;;;4994246;28;20126;-79
2024/02/28 10:48:39;;;;;;;25.27;14.50;;;;;;;;;;4994146;28;20113;-79
2024/02/28 10:51:04;;;;;;;21.88;13.10;;;;;;;;;;4993509;28;20030;-78
2024/02/28 10:53:34;;;;;;;23.50;13.23;;;;;;;;;;4994219;28;20029;-78
2024/02/28 10:56:02;;;;;;;24.45;14.20;;;;;;;;;;4993513;28;20038;-78
2024/02/28 10:58:29;;;;;;;21.25;11.95;;;;;;;;;;4995408;28;20025;-79
2024/02/28 11:00:54;;;;;;;22.67;12.30;;;;;;;;;;4993144;28;20038;-78
2024/02/28 11:03:20;;;;;;;21.50;12.40;;;;;;;;;;4995888;28;20380;-78
2024/02/28 11:05:48;;;;;;;21.95;13.60;;;;;;;;;;4993578;28;20034;-78
2024/02/28 11:08:19;;;;;;;24.65;13.88;;;;;;;;;;4993363;28;20105;-78
2024/02/28 11:10:46;;;;;;;25.48;13.90;;;;;;;;;;4993081;28;20059;-78
2024/02/28 11:13:20;;;;;;;24.35;13.52;;;;;;;;;;4992254;28;20508;-78
2024/02/28 11:15:46;;;;;;;24.50;14.75;;;;;;;;;;4993805;28;20096;-77
2024/02/28 11:18:11;;;;;;;24.83;14.63;;;;;;;;;;4994015;28;20062;-78
2024/02/28 11:20:50;;;;;;;22.70;13.40;;;;;;;;;;4996386;28;20096;-78
2024/02/28 11:23:21;;;;;;;22.88;13.90;;;;;;;;;;4993520;28;20033;-78
2024/02/28 11:25:46;;;;;;;24.08;14.23;;;;;;;;;;4992945;28;20616;-78
2024/02/28 11:28:11;;;;;;;21.77;11.98;;;;;;;;;;4993455;28;20026;-78
2024/02/28 11:30:36;;;;;;;24.30;14.20;;;;;;;;;;4995741;28;20030;-76
2024/02/28 11:33:02;;;;;;;24.58;14.20;;;;;;;;;;4992693;28;20036;-77
2024/02/28 11:35:31;;;;;;;28.40;17.25;;;;;;;;;;4991874;28;20065;-77
2024/02/28 11:37:59;;;;;;;25.70;14.88;;;;;;;;;;4993771;28;20475;-77
2024/02/28 11:40:30;;;;;;;25.63;16.15;;;;;;;;;;4989246;28;20423;-77
2024/02/28 11:42:57;;;;;;;23.42;14.88;;;;;;;;;;4995731;28;20093;-77
2024/02/28 11:45:23;;;;;;;26.08;15.80;;;;;;;;;;4996326;28;20092;-76
2024/02/28 11:47:48;;;;;;;28.15;17.63;;;;;;;;;;4992989;28;20240;-76
2024/02/28 11:50:18;;;;;;;25.65;15.27;;;;;;;;;;4992914;28;20038;-78
2024/02/28 11:52:43;;;;;;;34.17;18.42;;;;;;;;;;4992851;28;20390;-78
2024/02/28 11:55:09;;;;;;;24.42;14.90;;;;;;;;;;4991542;28;20030;-78
2024/02/28 11:57:35;;;;;;;22.92;13.65;;;;;;;;;;4991739;28;20026;-78
2024/02/28 12:00:04;;;;;;;25.77;15.57;;;;;;;;;;4991203;28;20030;-78
2024/02/28 12:02:33;;;;;;;;;;;;;;;;;;4993589;28;20114;-77
2024/02/28 12:05:02;;;;;;;23.20;13.95;;;;;;;;;;4987606;28;20008;-77
2024/02/28 12:07:27;;;;;;;29.27;17.30;;;;;;;;;;4988508;28;20092;-77
2024/02/28 12:09:53;;;;;;;23.88;14.43;;;;;;;;;;4992222;28;20473;-77
2024/02/28 12:12:19;;;;;;;25.98;15.30;;;;;;;;;;4992259;28;20046;-77
2024/02/28 12:14:45;;;;;;;24.67;14.55;;;;;;;;;;4992257;28;20490;-77
2024/02/28 12:17:11;;;;;;;21.52;13.20;;;;;;;;;;4992607;28;20115;-77
2024/02/28 12:19:36;;;;;;;21.98;13.52;;;;;;;;;;4992338;28;20117;-77
2024/02/28 12:22:01;;;;;;;22.48;13.52;;;;;;;;;;4990247;28;20037;-76
2024/02/28 12:24:26;;;;;;;21.55;13.63;;;;;;;;;;4992208;28;20081;-77
2024/02/28 12:26:52;;;;;;;23.33;14.77;;;;;;;;;;4992202;28;20473;-78
2024/02/28 12:29:17;;;;;;;22.08;13.40;;;;;;;;;;4990998;28;20064;-78
2024/02/28 12:31:42;;;;;;;20.20;13.00;;;;;;;;;;4990586;28;20038;-77
2024/02/28 12:34:07;;;;;;;21.90;14.15;;;;;;;;;;4988486;28;20150;-78
2024/02/28 12:36:34;;;;;;;18.80;12.07;;;;;;;;;;4989405;28;20661;-79
2024/02/28 12:38:59;;;;;;;19.92;12.88;;;;;;;;;;4987978;28;20415;-77
2024/02/28 12:41:25;;;;;;;22.60;14.63;;;;;;;;;;4989801;28;20031;-78
2024/02/28 12:43:50;;;;;;;37.10;22.35;;;;;;;;;;4991785;28;20042;-78
2024/02/28 12:46:15;;;;;;;21.85;13.88;;;;;;;;;;4992242;28;20038;-77
2024/02/28 12:48:40;;;;;;;19.83;12.85;;;;;;;;;;4991714;28;20030;-77
2024/02/28 12:51:06;;;;;;;18.75;12.88;;;;;;;;;;4991121;28;20046;-79
2024/02/28 12:53:31;;;;;;;18.35;11.07;;;;;;;;;;4991642;28;20065;-78
2024/02/28 12:55:56;;;;;;;19.52;12.20;;;;;;;;;;4990425;28;20487;-77
2024/02/28 12:58:23;;;;;;;19.10;12.18;;;;;;;;;;4991494;28;20018;-79
2024/02/28 13:00:48;;;;;;;19.10;11.68;;;;;;;;;;4998029;28;20441;-78
2024/02/28 13:03:14;;;;;;;18.25;11.82;;;;;;;;;;4991548;28;20034;-77
2024/02/28 13:05:40;;;;;;;20.30;13.02;;;;;;;;;;4991464;28;20030;-78
2024/02/28 13:08:05;;;;;;;19.00;12.50;;;;;;;;;;4991805;28;20549;-77
2024/02/28 13:10:30;;;;;;;19.70;12.23;;;;;;;;;;4992781;28;20451;-79
2024/02/28 13:12:55;;;;;;;18.85;11.70;;;;;;;;;;4990979;28;20066;-78
2024/02/28 13:15:20;;;;;;;19.00;11.30;;;;;;;;;;4991220;28;20026;-78
2024/02/28 13:17:49;;;;;;;17.27;11.68;;;;;;;;;;4991124;28;20471;-78
2024/02/28 13:20:14;;;;;;;18.55;11.45;;;;;;;;;;4991091;28;20558;-78
2024/02/28 13:22:39;;;;;;;18.73;11.35;;;;;;;;;;4990486;28;20030;-77
2024/02/28 13:25:04;;;;;;;19.85;11.70;;;;;;;;;;4990842;28;20034;-77
2024/02/28 13:27:30;;;;;;;18.58;11.70;;;;;;;;;;4991679;28;20022;-78
2024/02/28 13:29:55;;;;;;;17.42;11.70;;;;;;;;;;4992708;28;20495;-78
2024/02/28 13:32:20;;;;;;;17.38;11.65;;;;;;;;;;4990782;28;20030;-77
2024/02/28 13:34:45;;;;;;;18.95;12.95;;;;;;;;;;4990922;28;20057;-77
2024/02/28 13:37:10;;;;;;;18.45;12.57;;;;;;;;;;4990959;28;20026;-78
2024/02/28 13:39:35;;;;;;;17.60;11.70;;;;;;;;;;4991512;28;20054;-78
2024/02/28 13:42:03;;;;;;;17.05;11.63;;;;;;;;;;4992712;28;20038;-79
2024/02/28 13:44:28;;;;;;;18.48;11.77;;;;;;;;;;4994800;28;20041;-77
2024/02/28 13:46:53;;;;;;;17.85;12.05;;;;;;;;;;4989591;28;20454;-78
2024/02/28 13:49:19;;;;;;;19.17;12.82;;;;;;;;;;4990740;28;20061;-78
2024/02/28 13:51:44;;;;;;;17.95;11.90;;;;;;;;;;4990185;28;20034;-77
2024/02/28 13:54:09;;;;;;;17.52;12.25;;;;;;;;;;4990323;28;20056;-78
2024/02/28 13:56:34;;;;;;;18.50;12.65;;;;;;;;;;4990703;28;20509;-79
2024/02/28 13:59:00;;;;;;;14.90;11.20;;;;;;;;;;4990591;28;20042;-77
2024/02/28 14:01:25;;;;;;;19.25;12.80;;;;;;;;;;4990204;28;20348;-78
2024/02/28 14:03:50;;;;;;;19.92;13.68;;;;;;;;;;4990510;28;20049;-77
2024/02/28 14:06:15;;;;;;;18.38;12.38;;;;;;;;;;4990532;28;20026;-77
2024/02/28 14:08:40;;;;;;;19.50;13.43;;;;;;;;;;4989912;28;20506;-77